Lawton, Kansas
Current Conditions -  °F | °C
As of 8:35 PM on Friday 24 Oct 2014 (Local Time) from KPTS Reporting Station
Clear Clear  
Wind Chill: 66°   Ceiling: Unl
Heat Index: 66°   Visibility: 10mi
Dew Point: 62°   Wind: 6mph
Humidity: 88%   Direction: 210°SSW
Pressure: 30.02"   Gusts: NA
Location:  37.2773°N, 94.7051°W
Report Text: KPTS 250135Z AUTO 21005KT 10SM CLR 19/17 A3002 RMK AO2 T01870167
Loading
Personal Weather Stations






























Interactive Weather Map
Tropical Storm Tracking
New forecast layout! Learn more

10-Day Weather Forecast

Advertisements
Track Severe Weather on mobile